createdAt,value
2022-10-29T00:01:23.702Z,14.83
2022-10-29T00:06:23.966Z,14.74
2022-10-29T00:11:23.654Z,14.68
2022-10-29T00:16:26.173Z,14.66
2022-10-29T00:21:27.866Z,14.68
2022-10-29T00:26:30.482Z,14.69
2022-10-29T00:31:29.467Z,14.69
2022-10-29T00:36:33.422Z,14.68
2022-10-29T00:41:32.317Z,14.70
2022-10-29T00:53:43.203Z,14.70
2022-10-29T00:58:42.375Z,14.66
2022-10-29T01:03:41.694Z,14.60
2022-10-29T01:08:42.168Z,14.39
2022-10-29T01:13:58.905Z,14.33
2022-10-29T01:19:07.004Z,14.30
2022-10-29T01:24:56.059Z,14.17
2022-10-29T01:30:07.207Z,14.18
2022-10-29T01:35:16.488Z,14.17
2022-10-29T01:40:22.859Z,14.13
2022-10-29T01:45:28.249Z,14.10
2022-10-29T01:50:29.553Z,14.08
2022-10-29T01:55:34.047Z,14.01
2022-10-29T02:00:39.191Z,13.96
2022-10-29T02:05:49.940Z,13.90
2022-10-29T02:10:55.928Z,13.80
2022-10-29T02:15:57.803Z,13.69
2022-10-29T02:20:57.996Z,13.58
2022-10-29T02:25:57.118Z,13.49
2022-10-29T02:30:55.996Z,13.33
2022-10-29T02:35:55.218Z,13.18
2022-10-29T02:40:55.476Z,13.11
2022-10-29T02:46:12.818Z,13.04
2022-10-29T02:51:12.037Z,12.92
2022-10-29T02:56:12.752Z,12.83
2022-10-29T03:01:11.939Z,12.79
2022-10-29T03:07:01.722Z,12.74
2022-10-29T03:12:05.504Z,12.61
2022-10-29T03:17:06.526Z,12.57
2022-10-29T03:22:05.372Z,12.50
2022-10-29T03:27:05.826Z,12.48
2022-10-29T03:32:04.689Z,12.39
2022-10-29T03:37:03.836Z,12.37
2022-10-29T03:42:04.224Z,12.36
2022-10-29T03:47:06.979Z,12.30
2022-10-29T03:52:06.104Z,12.22
2022-10-29T03:57:05.447Z,12.19
2022-10-29T04:02:07.619Z,12.23
2022-10-29T04:07:06.625Z,12.28
2022-10-29T04:12:06.339Z,12.30
2022-10-29T04:17:06.715Z,12.30
2022-10-29T04:32:47.129Z,12.24
2022-10-29T04:37:46.175Z,12.21
2022-10-29T04:42:45.057Z,12.19
2022-10-29T04:47:45.640Z,12.17
2022-10-29T04:52:44.526Z,12.17
2022-10-29T04:57:43.727Z,12.19
2022-10-29T05:02:42.548Z,12.19
2022-10-29T05:07:42.925Z,12.22
2022-10-29T05:12:42.195Z,12.23
2022-10-29T05:17:41.002Z,12.73
2022-10-29T05:22:39.723Z,13.28
2022-10-29T05:27:39.872Z,13.20
2022-10-29T05:32:41.827Z,13.00
2022-10-29T05:37:44.236Z,12.90
2022-10-29T05:42:47.543Z,12.85
2022-10-29T05:47:50.218Z,12.81
2022-10-29T05:52:57.892Z,12.80
2022-10-29T05:57:59.844Z,12.83
2022-10-29T06:02:59.738Z,12.89
2022-10-29T06:08:01.558Z,12.97
2022-10-29T06:13:04.164Z,13.03
2022-10-29T06:18:03.347Z,13.12
2022-10-29T06:23:02.344Z,13.15
2022-10-29T06:28:04.656Z,13.25
2022-10-29T06:33:05.654Z,13.27
2022-10-29T06:38:10.849Z,13.31
2022-10-29T06:43:13.931Z,13.39
2022-10-29T06:48:14.570Z,13.38
2022-10-29T06:53:16.547Z,13.43
2022-10-29T06:58:18.944Z,13.49
2022-10-29T07:03:20.204Z,13.55
2022-10-29T07:08:19.219Z,13.65
2022-10-29T07:13:19.593Z,13.77
2022-10-29T07:18:18.692Z,13.85
2022-10-29T07:23:17.992Z,13.93
2022-10-29T07:28:21.018Z,13.98
2022-10-29T07:33:20.047Z,13.92
2022-10-29T07:38:19.393Z,13.97
2022-10-29T07:43:21.221Z,14.02
2022-10-29T07:48:23.132Z,14.37
2022-10-29T07:53:21.941Z,14.57
2022-10-29T07:58:22.795Z,14.65
2022-10-29T08:03:21.694Z,14.76
2022-10-29T08:08:22.326Z,14.83
2022-10-29T08:13:22.636Z,15.11
2022-10-29T08:18:21.655Z,15.33
2022-10-29T08:23:22.609Z,15.56
2022-10-29T08:28:25.770Z,15.98
2022-10-29T08:33:25.242Z,16.37
2022-10-29T08:38:24.636Z,16.47
2022-10-29T08:43:48.438Z,17.45
2022-10-29T08:48:52.893Z,18.21
2022-10-29T08:54:24.899Z,18.53
2022-10-29T08:59:18.180Z,18.72
2022-10-29T09:04:25.041Z,19.76
2022-10-29T09:09:32.660Z,20.28
2022-10-29T09:14:50.108Z,21.07
2022-10-29T09:20:16.312Z,21.52
2022-10-29T09:25:20.476Z,21.86
2022-10-29T09:30:23.022Z,21.86
2022-10-29T09:35:24.821Z,22.37
2022-10-29T09:40:33.700Z,23.02
2022-10-29T09:45:46.672Z,22.97
2022-10-29T09:50:53.974Z,23.26
2022-10-29T09:55:54.025Z,23.92
2022-10-29T10:07:01.866Z,24.64
2022-10-29T10:12:00.911Z,24.90
2022-10-29T10:17:02.866Z,25.20
2022-10-29T10:22:03.982Z,25.46
2022-10-29T10:27:03.548Z,25.99
2022-10-29T10:32:17.817Z,26.35
2022-10-29T10:37:20.247Z,26.96
2022-10-29T10:42:23.889Z,27.37
2022-10-29T10:47:28.914Z,27.71
2022-10-29T10:52:32.107Z,28.49
2022-10-29T10:57:36.520Z,28.40
2022-10-29T11:02:49.186Z,28.48
2022-10-29T11:07:56.319Z,28.83
2022-10-29T11:12:57.992Z,29.82
2022-10-29T11:18:04.285Z,30.31
2022-10-29T11:23:22.364Z,30.81
2022-10-29T11:28:27.839Z,31.22
2022-10-29T11:33:37.357Z,31.43
2022-10-29T11:38:46.731Z,31.00
2022-10-29T11:43:48.231Z,32.36
2022-10-29T11:48:57.867Z,31.98
2022-10-29T11:54:02.636Z,32.62
2022-10-29T11:59:07.723Z,33.37
2022-10-29T12:04:24.463Z,33.66
2022-10-29T12:09:43.726Z,33.62
2022-10-29T12:14:49.236Z,33.32
2022-10-29T12:19:57.320Z,33.46
2022-10-29T12:25:21.747Z,33.06
2022-10-29T12:30:23.610Z,32.52
2022-10-29T12:35:30.820Z,32.86
2022-10-29T12:40:32.656Z,33.26
2022-10-29T12:45:53.044Z,33.21
2022-10-29T12:51:09.722Z,33.23
2022-10-29T12:56:10.746Z,32.97
2022-10-29T13:07:23.786Z,32.99
2022-10-29T13:13:01.504Z,33.85
2022-10-29T13:18:19.397Z,33.82
2022-10-29T13:24:02.847Z,33.90
2022-10-29T13:29:02.007Z,33.80
2022-10-29T13:34:00.824Z,33.88
2022-10-29T13:39:08.254Z,34.19
2022-10-29T13:44:12.705Z,33.74
2022-10-29T13:49:16.933Z,33.84
2022-10-29T13:59:36.872Z,33.29
2022-10-29T14:04:40.386Z,33.26
2022-10-29T14:09:45.551Z,33.10
2022-10-29T14:14:52.989Z,32.93
2022-10-29T14:19:53.585Z,32.85
2022-10-29T14:24:53.862Z,32.63
2022-10-29T14:29:54.702Z,32.51
2022-10-29T14:34:54.991Z,32.16
2022-10-29T14:39:59.480Z,31.96
2022-10-29T14:45:01.291Z,31.84
2022-10-29T14:50:02.979Z,31.66
2022-10-29T14:55:07.954Z,31.40
2022-10-29T15:00:08.441Z,31.11
2022-10-29T15:05:24.660Z,30.81
2022-10-29T15:10:26.574Z,30.34
2022-10-29T15:15:28.807Z,29.81
2022-10-29T15:20:32.760Z,29.28
2022-10-29T15:25:36.790Z,28.73
2022-10-29T15:30:37.435Z,28.21
2022-10-29T15:35:37.089Z,27.65
2022-10-29T15:40:37.491Z,27.14
2022-10-29T15:45:36.644Z,26.63
2022-10-29T15:50:42.926Z,26.10
2022-10-29T15:55:43.368Z,25.57
2022-10-29T16:00:42.182Z,25.12
2022-10-29T16:05:41.553Z,24.74
2022-10-29T16:10:40.711Z,24.37
2022-10-29T16:15:44.085Z,24.07
2022-10-29T16:20:43.498Z,23.81
2022-10-29T16:25:43.247Z,23.53
2022-10-29T16:30:44.296Z,23.29
2022-10-29T16:35:43.325Z,23.06
2022-10-29T16:40:46.765Z,22.82
2022-10-29T16:45:50.428Z,22.59
2022-10-29T16:50:55.184Z,22.38
2022-10-29T16:56:03.050Z,22.15
2022-10-29T17:01:12.825Z,21.95
2022-10-29T17:06:12.339Z,21.77
2022-10-29T17:11:11.108Z,21.57
2022-10-29T17:16:14.836Z,21.30
2022-10-29T17:21:13.719Z,21.11
2022-10-29T17:26:12.618Z,20.94
2022-10-29T17:31:12.979Z,20.78
2022-10-29T17:36:14.130Z,20.66
2022-10-29T17:41:21.311Z,20.50
2022-10-29T17:46:21.931Z,20.41
2022-10-29T17:51:21.022Z,20.25
2022-10-29T17:56:20.120Z,20.16
2022-10-29T18:01:19.399Z,20.07
2022-10-29T18:06:20.462Z,19.99
2022-10-29T18:11:21.545Z,19.87
2022-10-29T18:16:22.780Z,19.76
2022-10-29T18:21:25.080Z,19.65
2022-10-29T18:26:27.554Z,19.55
2022-10-29T18:31:27.520Z,19.34
2022-10-29T18:36:27.876Z,19.23
2022-10-29T18:41:27.463Z,19.13
2022-10-29T18:46:26.729Z,19.02
2022-10-29T18:51:36.676Z,18.87
2022-10-29T18:56:38.155Z,18.75
2022-10-29T19:01:38.534Z,18.62
2022-10-29T19:06:40.588Z,18.49
2022-10-29T19:11:39.744Z,18.33
2022-10-29T19:16:44.036Z,18.19
2022-10-29T19:21:44.729Z,18.10
2022-10-29T19:26:48.731Z,18.03
2022-10-29T19:31:54.836Z,17.94
2022-10-29T19:36:57.628Z,17.84
2022-10-29T19:42:02.764Z,17.72
2022-10-29T19:47:01.930Z,17.66
2022-10-29T19:52:03.219Z,17.58
2022-10-29T19:57:08.471Z,17.46
2022-10-29T20:02:07.296Z,17.36
2022-10-29T20:07:12.367Z,17.18
2022-10-29T20:12:11.983Z,17.10
2022-10-29T20:17:13.614Z,17.03
2022-10-29T20:22:15.244Z,16.96
2022-10-29T20:27:17.284Z,16.90
2022-10-29T20:32:19.981Z,16.75
2022-10-29T20:37:20.431Z,16.64
2022-10-29T20:42:19.338Z,16.44
2022-10-29T20:47:18.317Z,16.31
2022-10-29T20:52:17.155Z,16.30
2022-10-29T20:57:17.495Z,16.28
2022-10-29T21:02:16.351Z,16.24
2022-10-29T21:07:18.992Z,16.20
2022-10-29T21:12:19.347Z,16.15
2022-10-29T21:17:18.178Z,16.08
2022-10-29T21:22:19.231Z,16.02
2022-10-29T21:27:19.591Z,16.00
2022-10-29T21:32:18.517Z,15.95
2022-10-29T21:37:17.727Z,15.90
2022-10-29T21:42:31.383Z,15.87
2022-10-29T21:47:30.235Z,15.86
2022-10-29T21:52:29.170Z,15.85
2022-10-29T21:57:29.384Z,15.85
2022-10-29T22:02:29.443Z,15.67
2022-10-29T22:07:28.367Z,15.52
2022-10-29T22:12:27.327Z,15.42
2022-10-29T22:17:28.672Z,15.41
2022-10-29T22:22:27.602Z,15.38
2022-10-29T22:27:26.497Z,15.31
2022-10-29T22:32:25.323Z,15.26
2022-10-29T22:37:25.742Z,15.23
2022-10-29T22:42:24.637Z,15.16
2022-10-29T22:47:23.491Z,15.08
2022-10-29T22:52:22.700Z,14.95
2022-10-29T22:57:23.103Z,14.83
2022-10-29T23:02:22.073Z,14.68
2022-10-29T23:07:21.277Z,14.56
2022-10-29T23:12:20.287Z,14.61
2022-10-29T23:17:20.667Z,14.56
2022-10-29T23:22:20.972Z,14.52
2022-10-29T23:27:22.235Z,14.54
2022-10-29T23:32:23.385Z,14.50
2022-10-29T23:37:22.234Z,14.50
2022-10-29T23:42:21.188Z,14.50
2022-10-29T23:47:20.068Z,14.33
2022-10-29T23:52:20.429Z,14.39
2022-10-29T23:57:19.394Z,14.39
